»·PEaware :: N17XD KSBP-KSBA

N17XD :: KSBP-KSBA

FLIGHT INFORMATION

Flight Status: Arrived
Operator: Privately registered:
United States
More flights under this callsign
Pilot: David R. (15748)
Aircraft: CESSNA 177 CARDINAL
(C177)
More flights by this aircraft type
Origin: KSBP San Luis Co Regl
United States
Destination: KSBA Santa Barbara Mun
United States
More flights between these airports :: More routes between these airports
Route: +MQO V27 GVO
File this flight plan on PilotEdge
Remarks: RV for ILS RWY 7
Altitude:
(Current/Filed)
5,000ft
Speed:
(Current/Filed)
130kts
Departed: 26-Jan-19 10:21 AM
Arrived: 26-Jan-19 11:09 AM
Distance/Time
Traveled:
62nm/0:48
Distance/Time
To Go:
Arrived

Flight Plot

Page will automatically refresh every two minutes.


Map Options




Map Legend


Flown Route
Filed Route
Departure Airport
Arrival Airport
Navaid (VOR, NDB)
Fix

Horizontal Profiles

Position Reports

Time Latitude Longitude Heading Altitude Ground
Speed
26-Jan-19 10:05 35.235810 -120.635592 302 215ft 0kts
26-Jan-19 10:06 35.235810 -120.635592 302 215ft 0kts
26-Jan-19 10:07 35.235810 -120.635592 302 215ft 0kts
26-Jan-19 10:08 35.235810 -120.635592 302 215ft 0kts
26-Jan-19 10:09 35.235810 -120.635592 302 215ft 0kts
26-Jan-19 10:10 35.235810 -120.635592 302 215ft 0kts
26-Jan-19 10:11 35.235810 -120.635592 302 215ft 0kts
26-Jan-19 10:12 35.235810 -120.635592 302 215ft 0kts
26-Jan-19 10:13 35.235810 -120.635592 302 215ft 0kts
26-Jan-19 10:14 35.235810 -120.635592 302 215ft 0kts
26-Jan-19 10:15 35.235810 -120.635592 302 215ft 0kts
26-Jan-19 10:16 35.235811 -120.635594 302 215ft 0kts
26-Jan-19 10:17 35.235053 -120.635100 122 215ft 11kts
26-Jan-19 10:18 35.233366 -120.632318 168 215ft 0kts
26-Jan-19 10:19 35.233039 -120.632491 219 215ft 7kts
26-Jan-19 10:20 35.236624 -120.639722 304 253ft 88kts
26-Jan-19 10:22 35.252651 -120.668930 303 1116ft 108kts
26-Jan-19 10:23 35.269031 -120.698699 303 2017ft 103kts
26-Jan-19 10:24 35.284441 -120.726811 303 2809ft 102kts
26-Jan-19 10:25 35.299984 -120.755608 303 3590ft 101kts
26-Jan-19 10:26 35.315341 -120.784527 303 4354ft 102kts
26-Jan-19 10:27 35.330760 -120.814004 303 5045ft 108kts
26-Jan-19 10:28 35.349837 -120.850273 303 5009ft 133kts
26-Jan-19 10:29 35.346216 -120.887868 197 5006ft 139kts
26-Jan-19 10:30 35.317188 -120.863094 124 5008ft 137kts
26-Jan-19 10:31 35.294439 -120.825392 122 5008ft 137kts
26-Jan-19 10:32 35.270886 -120.788237 126 5008ft 137kts
26-Jan-19 10:33 35.245730 -120.753582 138 5008ft 137kts
26-Jan-19 10:34 35.215298 -120.724495 140 5009ft 141kts
26-Jan-19 10:35 35.184039 -120.695150 141 5008ft 141kts
26-Jan-19 10:36 35.152704 -120.665836 141 5008ft 141kts
26-Jan-19 10:37 35.121361 -120.636555 141 5008ft 142kts
26-Jan-19 10:38 35.090036 -120.607323 141 5009ft 141kts
26-Jan-19 10:39 35.058536 -120.577957 141 4990ft 142kts
26-Jan-19 10:39 35.032344 -120.553563 141 4990ft 142kts
26-Jan-19 10:40 35.000938 -120.524342 140 4990ft 142kts
26-Jan-19 10:42 34.964215 -120.490199 140 4990ft 142kts
26-Jan-19 10:43 34.932630 -120.460870 140 4990ft 142kts
26-Jan-19 10:43 34.906143 -120.436291 140 4991ft 146kts
26-Jan-19 10:44 34.873821 -120.406364 140 4986ft 140kts
26-Jan-19 10:45 34.843807 -120.378586 140 4990ft 133kts
26-Jan-19 10:46 34.814388 -120.351359 140 4991ft 132kts
26-Jan-19 10:48 34.780039 -120.319602 140 4993ft 132kts
26-Jan-19 10:48 34.755621 -120.297050 140 4995ft 132kts
26-Jan-19 10:49 34.725753 -120.269634 141 4997ft 135kts
26-Jan-19 10:50 34.695741 -120.242033 141 4998ft 135kts
26-Jan-19 10:51 34.665660 -120.214442 141 4999ft 135kts
26-Jan-19 10:52 34.635549 -120.186832 141 4999ft 135kts
26-Jan-19 10:53 34.605458 -120.159252 141 4999ft 135kts
26-Jan-19 10:54 34.575318 -120.131640 141 4999ft 135kts
26-Jan-19 10:55 34.545151 -120.104013 141 4997ft 135kts
26-Jan-19 10:56 34.515036 -120.076443 141 4993ft 136kts
26-Jan-19 10:57 34.485489 -120.070238 188 4608ft 93kts
26-Jan-19 10:58 34.460164 -120.074918 188 4027ft 92kts
26-Jan-19 10:59 34.432031 -120.073147 128 4020ft 119kts
26-Jan-19 11:00 34.419308 -120.045634 115 3283ft 93kts
26-Jan-19 11:01 34.410153 -120.018775 87 2649ft 86kts
26-Jan-19 11:02 34.414004 -119.990230 49 2002ft 88kts
26-Jan-19 11:03 34.428258 -119.967218 65 1437ft 85kts
26-Jan-19 11:04 34.436130 -119.940720 82 1061ft 86kts
26-Jan-19 11:05 34.430729 -119.913852 105 972ft 73kts
26-Jan-19 11:06 34.427512 -119.889661 93 730ft 71kts
26-Jan-19 11:07 34.427369 -119.865806 89 349ft 71kts
26-Jan-19 11:08 34.427808 -119.847819 93 13ft 7kts
26-Jan-19 11:09 34.428882 -119.844533 62 13ft 18kts
26-Jan-19 11:10 34.429933 -119.842576 253 13ft 0kts

Navigation Log

Ident Type
Flight plan parsing failed, navigation log unavailable